sensor_id;sensor_type;location;lat;lon;timestamp;temperature;humidity
69324;DHT22;56470;47.350;8.718;2024-03-22T00:00:15;11.94;71.13
69324;DHT22;56470;47.350;8.718;2024-03-22T00:02:52;11.82;71.44
69324;DHT22;56470;47.350;8.718;2024-03-22T00:05:20;11.82;71.66
69324;DHT22;56470;47.350;8.718;2024-03-22T00:07:47;11.82;71.62
69324;DHT22;56470;47.350;8.718;2024-03-22T00:10:29;11.81;71.56
69324;DHT22;56470;47.350;8.718;2024-03-22T00:13:04;11.80;71.67
69324;DHT22;56470;47.350;8.718;2024-03-22T00:15:37;11.77;71.64
69324;DHT22;56470;47.350;8.718;2024-03-22T00:18:12;11.75;71.58
69324;DHT22;56470;47.350;8.718;2024-03-22T00:20:45;11.75;71.73
69324;DHT22;56470;47.350;8.718;2024-03-22T00:23:10;11.75;71.80
69324;DHT22;56470;47.350;8.718;2024-03-22T00:25:38;11.73;71.81
69324;DHT22;56470;47.350;8.718;2024-03-22T00:28:04;11.77;72.04
69324;DHT22;56470;47.350;8.718;2024-03-22T00:30:29;11.75;71.90
69324;DHT22;56470;47.350;8.718;2024-03-22T00:32:54;11.73;71.79
69324;DHT22;56470;47.350;8.718;2024-03-22T00:35:22;11.73;71.83
69324;DHT22;56470;47.350;8.718;2024-03-22T00:37:52;11.74;71.76
69324;DHT22;56470;47.350;8.718;2024-03-22T00:40:18;11.67;71.74
69324;DHT22;56470;47.350;8.718;2024-03-22T00:42:48;11.63;71.77
69324;DHT22;56470;47.350;8.718;2024-03-22T00:45:18;11.61;71.76
69324;DHT22;56470;47.350;8.718;2024-03-22T00:48:03;11.54;71.62
69324;DHT22;56470;47.350;8.718;2024-03-22T00:50:34;11.57;71.50
69324;DHT22;56470;47.350;8.718;2024-03-22T00:53:10;11.56;71.52
69324;DHT22;56470;47.350;8.718;2024-03-22T00:55:51;11.52;71.52
69324;DHT22;56470;47.350;8.718;2024-03-22T00:58:32;11.52;71.58
69324;DHT22;56470;47.350;8.718;2024-03-22T01:00:59;11.53;71.59
69324;DHT22;56470;47.350;8.718;2024-03-22T01:03:25;11.57;71.46
69324;DHT22;56470;47.350;8.718;2024-03-22T01:06:04;11.52;71.26
69324;DHT22;56470;47.350;8.718;2024-03-22T01:11:53;11.27;71.36
69324;DHT22;56470;47.350;8.718;2024-03-22T01:14:21;11.18;71.56
69324;DHT22;56470;47.350;8.718;2024-03-22T01:17:06;11.05;71.76
69324;DHT22;56470;47.350;8.718;2024-03-22T01:19:37;11.01;72.07
69324;DHT22;56470;47.350;8.718;2024-03-22T01:22:02;11.09;72.05
69324;DHT22;56470;47.350;8.718;2024-03-22T01:24:41;11.12;71.86
69324;DHT22;56470;47.350;8.718;2024-03-22T01:27:38;11.02;71.87
69324;DHT22;56470;47.350;8.718;2024-03-22T01:30:10;10.98;71.92
69324;DHT22;56470;47.350;8.718;2024-03-22T01:32:38;10.92;72.17
69324;DHT22;56470;47.350;8.718;2024-03-22T01:35:19;10.82;72.07
69324;DHT22;56470;47.350;8.718;2024-03-22T01:41:12;10.70;72.30
69324;DHT22;56470;47.350;8.718;2024-03-22T01:44:02;10.67;72.39
69324;DHT22;56470;47.350;8.718;2024-03-22T01:46:35;10.63;72.52
69324;DHT22;56470;47.350;8.718;2024-03-22T01:49:09;10.63;72.58
69324;DHT22;56470;47.350;8.718;2024-03-22T01:51:43;10.61;72.42
69324;DHT22;56470;47.350;8.718;2024-03-22T01:54:27;10.60;72.58
69324;DHT22;56470;47.350;8.718;2024-03-22T01:57:08;10.56;72.64
69324;DHT22;56470;47.350;8.718;2024-03-22T01:59:41;10.54;72.65
69324;DHT22;56470;47.350;8.718;2024-03-22T02:02:09;10.56;72.72
69324;DHT22;56470;47.350;8.718;2024-03-22T02:04:39;10.56;72.80
69324;DHT22;56470;47.350;8.718;2024-03-22T02:07:05;10.60;72.71
69324;DHT22;56470;47.350;8.718;2024-03-22T02:09:33;10.64;72.53
69324;DHT22;56470;47.350;8.718;2024-03-22T02:12:12;10.63;72.43
69324;DHT22;56470;47.350;8.718;2024-03-22T02:14:58;10.71;72.32
69324;DHT22;56470;47.350;8.718;2024-03-22T02:17:29;10.71;72.15
69324;DHT22;56470;47.350;8.718;2024-03-22T02:20:05;10.74;72.18
69324;DHT22;56470;47.350;8.718;2024-03-22T02:22:53;10.71;72.27
69324;DHT22;56470;47.350;8.718;2024-03-22T02:25:27;10.61;72.43
69324;DHT22;56470;47.350;8.718;2024-03-22T02:27:57;10.64;72.52
69324;DHT22;56470;47.350;8.718;2024-03-22T02:30:24;10.70;72.40
69324;DHT22;56470;47.350;8.718;2024-03-22T02:32:50;10.70;72.29
69324;DHT22;56470;47.350;8.718;2024-03-22T02:35:15;10.63;72.65
69324;DHT22;56470;47.350;8.718;2024-03-22T02:37:41;10.63;72.79
69324;DHT22;56470;47.350;8.718;2024-03-22T02:40:06;10.60;72.80
69324;DHT22;56470;47.350;8.718;2024-03-22T02:42:42;10.60;72.77
69324;DHT22;56470;47.350;8.718;2024-03-22T02:48:20;10.61;72.73
69324;DHT22;56470;47.350;8.718;2024-03-22T02:51:00;10.54;72.80
69324;DHT22;56470;47.350;8.718;2024-03-22T02:53:33;10.56;72.97
69324;DHT22;56470;47.350;8.718;2024-03-22T02:56:03;10.59;72.87
69324;DHT22;56470;47.350;8.718;2024-03-22T02:59:06;10.54;73.11
69324;DHT22;56470;47.350;8.718;2024-03-22T03:01:57;10.57;72.93
69324;DHT22;56470;47.350;8.718;2024-03-22T03:04:25;10.53;72.89
69324;DHT22;56470;47.350;8.718;2024-03-22T03:06:56;10.53;72.95
69324;DHT22;56470;47.350;8.718;2024-03-22T03:09:44;10.49;72.95
69324;DHT22;56470;47.350;8.718;2024-03-22T03:12:11;10.45;73.07
69324;DHT22;56470;47.350;8.718;2024-03-22T03:14:40;10.37;73.14
69324;DHT22;56470;47.350;8.718;2024-03-22T03:17:12;10.35;73.22
69324;DHT22;56470;47.350;8.718;2024-03-22T03:20:00;10.35;73.30
69324;DHT22;56470;47.350;8.718;2024-03-22T03:22:40;10.32;73.38
69324;DHT22;56470;47.350;8.718;2024-03-22T03:25:09;10.32;73.44
69324;DHT22;56470;47.350;8.718;2024-03-22T03:27:44;10.36;73.47
69324;DHT22;56470;47.350;8.718;2024-03-22T03:30:15;10.36;73.53
69324;DHT22;56470;47.350;8.718;2024-03-22T03:32:41;10.40;73.51
69324;DHT22;56470;47.350;8.718;2024-03-22T03:35:06;10.45;73.50
69324;DHT22;56470;47.350;8.718;2024-03-22T03:37:32;10.49;73.50
69324;DHT22;56470;47.350;8.718;2024-03-22T03:39:57;10.52;73.55
69324;DHT22;56470;47.350;8.718;2024-03-22T03:42:23;10.63;73.48
69324;DHT22;56470;47.350;8.718;2024-03-22T03:44:48;10.64;73.37
69324;DHT22;56470;47.350;8.718;2024-03-22T03:47:16;10.71;73.30
69324;DHT22;56470;47.350;8.718;2024-03-22T03:49:45;10.74;73.18
69324;DHT22;56470;47.350;8.718;2024-03-22T03:52:10;10.80;73.11
69324;DHT22;56470;47.350;8.718;2024-03-22T03:54:36;10.80;72.99
69324;DHT22;56470;47.350;8.718;2024-03-22T03:57:02;10.80;72.87
69324;DHT22;56470;47.350;8.718;2024-03-22T03:59:27;10.80;72.81
69324;DHT22;56470;47.350;8.718;2024-03-22T04:01:53;10.78;72.65
69324;DHT22;56470;47.350;8.718;2024-03-22T04:04:18;10.77;72.65
69324;DHT22;56470;47.350;8.718;2024-03-22T04:06:44;10.74;72.69
69324;DHT22;56470;47.350;8.718;2024-03-22T04:09:13;10.74;72.70
69324;DHT22;56470;47.350;8.718;2024-03-22T04:11:38;10.74;72.71
69324;DHT22;56470;47.350;8.718;2024-03-22T04:14:05;10.77;72.70
69324;DHT22;56470;47.350;8.718;2024-03-22T04:16:31;10.75;72.69
69324;DHT22;56470;47.350;8.718;2024-03-22T04:19:04;10.75;72.55
69324;DHT22;56470;47.350;8.718;2024-03-22T04:21:29;10.77;72.63
69324;DHT22;56470;47.350;8.718;2024-03-22T04:23:55;10.78;72.64
69324;DHT22;56470;47.350;8.718;2024-03-22T04:26:22;10.80;72.53
69324;DHT22;56470;47.350;8.718;2024-03-22T04:28:48;10.78;72.57
69324;DHT22;56470;47.350;8.718;2024-03-22T04:31:14;10.75;72.52
69324;DHT22;56470;47.350;8.718;2024-03-22T04:33:39;10.74;72.47
69324;DHT22;56470;47.350;8.718;2024-03-22T04:36:05;10.70;72.62
69324;DHT22;56470;47.350;8.718;2024-03-22T04:38:31;10.70;72.65
69324;DHT22;56470;47.350;8.718;2024-03-22T04:40:59;10.71;72.65
69324;DHT22;56470;47.350;8.718;2024-03-22T04:43:25;10.74;72.70
69324;DHT22;56470;47.350;8.718;2024-03-22T04:45:51;10.78;72.71
69324;DHT22;56470;47.350;8.718;2024-03-22T04:48:18;10.82;72.75
69324;DHT22;56470;47.350;8.718;2024-03-22T04:50:48;10.85;72.71
69324;DHT22;56470;47.350;8.718;2024-03-22T04:53:21;10.87;72.62
69324;DHT22;56470;47.350;8.718;2024-03-22T04:55:47;10.90;72.54
69324;DHT22;56470;47.350;8.718;2024-03-22T04:58:14;10.90;72.52
69324;DHT22;56470;47.350;8.718;2024-03-22T05:00:40;10.92;72.53
69324;DHT22;56470;47.350;8.718;2024-03-22T05:03:06;10.92;72.55
69324;DHT22;56470;47.350;8.718;2024-03-22T05:05:31;10.94;72.46
69324;DHT22;56470;47.350;8.718;2024-03-22T05:07:57;10.88;72.39
69324;DHT22;56470;47.350;8.718;2024-03-22T05:10:22;10.81;72.40
69324;DHT22;56470;47.350;8.718;2024-03-22T05:12:47;10.80;72.54
69324;DHT22;56470;47.350;8.718;2024-03-22T05:15:13;10.82;72.63
69324;DHT22;56470;47.350;8.718;2024-03-22T05:17:38;10.84;72.64
69324;DHT22;56470;47.350;8.718;2024-03-22T05:20:05;10.85;72.72
69324;DHT22;56470;47.350;8.718;2024-03-22T05:22:31;10.88;72.69
69324;DHT22;56470;47.350;8.718;2024-03-22T05:24:56;10.92;72.70
69324;DHT22;56470;47.350;8.718;2024-03-22T05:27:21;10.92;72.65
69324;DHT22;56470;47.350;8.718;2024-03-22T05:29:47;10.95;72.68
69324;DHT22;56470;47.350;8.718;2024-03-22T05:32:12;11.02;72.62
69324;DHT22;56470;47.350;8.718;2024-03-22T05:34:38;11.05;72.67
69324;DHT22;56470;47.350;8.718;2024-03-22T05:37:03;11.12;72.64
69324;DHT22;56470;47.350;8.718;2024-03-22T05:39:29;11.14;72.34
69324;DHT22;56470;47.350;8.718;2024-03-22T05:41:54;11.15;72.41
69324;DHT22;56470;47.350;8.718;2024-03-22T05:44:22;11.18;72.46
69324;DHT22;56470;47.350;8.718;2024-03-22T05:46:47;11.18;72.36
69324;DHT22;56470;47.350;8.718;2024-03-22T05:49:15;11.20;72.13
69324;DHT22;56470;47.350;8.718;2024-03-22T05:51:49;11.20;72.24
69324;DHT22;56470;47.350;8.718;2024-03-22T05:54:38;11.26;72.28
69324;DHT22;56470;47.350;8.718;2024-03-22T05:57:03;11.27;72.29
69324;DHT22;56470;47.350;8.718;2024-03-22T05:59:30;11.27;72.08
69324;DHT22;56470;47.350;8.718;2024-03-22T06:01:58;11.29;71.97
69324;DHT22;56470;47.350;8.718;2024-03-22T06:04:32;11.32;72.11
69324;DHT22;56470;47.350;8.718;2024-03-22T06:07:02;11.37;72.08
69324;DHT22;56470;47.350;8.718;2024-03-22T06:09:29;11.39;71.47
69324;DHT22;56470;47.350;8.718;2024-03-22T06:12:13;11.35;71.48
69324;DHT22;56470;47.350;8.718;2024-03-22T06:14:42;11.26;71.65
69324;DHT22;56470;47.350;8.718;2024-03-22T06:17:11;11.20;71.88
69324;DHT22;56470;47.350;8.718;2024-03-22T06:19:37;11.23;72.11
69324;DHT22;56470;47.350;8.718;2024-03-22T06:22:03;11.29;72.21
69324;DHT22;56470;47.350;8.718;2024-03-22T06:24:32;11.35;72.04
69324;DHT22;56470;47.350;8.718;2024-03-22T06:26:57;11.39;72.05
69324;DHT22;56470;47.350;8.718;2024-03-22T06:29:23;11.39;72.11
69324;DHT22;56470;47.350;8.718;2024-03-22T06:31:48;11.43;72.10
69324;DHT22;56470;47.350;8.718;2024-03-22T06:34:15;11.44;71.95
69324;DHT22;56470;47.350;8.718;2024-03-22T06:36:40;11.52;71.91
69324;DHT22;56470;47.350;8.718;2024-03-22T06:39:06;11.52;71.78
69324;DHT22;56470;47.350;8.718;2024-03-22T06:41:34;11.59;71.66
69324;DHT22;56470;47.350;8.718;2024-03-22T06:43:59;11.59;71.56
69324;DHT22;56470;47.350;8.718;2024-03-22T06:46:25;11.61;71.74
69324;DHT22;56470;47.350;8.718;2024-03-22T06:48:52;11.64;71.73
69324;DHT22;56470;47.350;8.718;2024-03-22T06:51:18;11.71;71.76
69324;DHT22;56470;47.350;8.718;2024-03-22T06:53:43;11.82;71.65
69324;DHT22;56470;47.350;8.718;2024-03-22T06:56:10;11.88;71.33
69324;DHT22;56470;47.350;8.718;2024-03-22T06:58:37;11.91;71.22
69324;DHT22;56470;47.350;8.718;2024-03-22T07:01:02;11.98;71.28
69324;DHT22;56470;47.350;8.718;2024-03-22T07:03:27;12.04;71.15
69324;DHT22;56470;47.350;8.718;2024-03-22T07:05:53;12.11;71.12
69324;DHT22;56470;47.350;8.718;2024-03-22T07:08:18;12.22;70.95
69324;DHT22;56470;47.350;8.718;2024-03-22T07:10:43;12.32;70.79
69324;DHT22;56470;47.350;8.718;2024-03-22T07:13:10;12.44;70.63
69324;DHT22;56470;47.350;8.718;2024-03-22T07:15:36;12.53;70.70
69324;DHT22;56470;47.350;8.718;2024-03-22T07:18:01;12.68;70.48
69324;DHT22;56470;47.350;8.718;2024-03-22T07:20:27;12.81;70.17
69324;DHT22;56470;47.350;8.718;2024-03-22T07:22:53;12.89;69.57
69324;DHT22;56470;47.350;8.718;2024-03-22T07:25:18;12.94;69.46
69324;DHT22;56470;47.350;8.718;2024-03-22T07:27:44;13.05;69.20
69324;DHT22;56470;47.350;8.718;2024-03-22T07:30:11;13.05;68.87
69324;DHT22;56470;47.350;8.718;2024-03-22T07:32:36;13.06;68.58
69324;DHT22;56470;47.350;8.718;2024-03-22T07:35:02;13.14;68.87
69324;DHT22;56470;47.350;8.718;2024-03-22T07:37:28;13.32;68.66
69324;DHT22;56470;47.350;8.718;2024-03-22T07:39:53;13.66;68.51
69324;DHT22;56470;47.350;8.718;2024-03-22T07:42:19;13.94;67.74
69324;DHT22;56470;47.350;8.718;2024-03-22T07:44:44;14.18;67.37
69324;DHT22;56470;47.350;8.718;2024-03-22T07:47:10;14.43;66.56
69324;DHT22;56470;47.350;8.718;2024-03-22T07:49:35;14.64;66.25
69324;DHT22;56470;47.350;8.718;2024-03-22T07:52:02;14.87;65.82
69324;DHT22;56470;47.350;8.718;2024-03-22T07:54:27;15.13;65.40
69324;DHT22;56470;47.350;8.718;2024-03-22T07:56:52;15.33;64.67
69324;DHT22;56470;47.350;8.718;2024-03-22T07:59:17;15.54;64.01
69324;DHT22;56470;47.350;8.718;2024-03-22T08:01:43;15.70;63.84
69324;DHT22;56470;47.350;8.718;2024-03-22T08:04:08;15.91;63.22
69324;DHT22;56470;47.350;8.718;2024-03-22T08:06:34;15.87;63.02
69324;DHT22;56470;47.350;8.718;2024-03-22T08:08:59;16.01;62.62
69324;DHT22;56470;47.350;8.718;2024-03-22T08:11:26;16.22;62.66
69324;DHT22;56470;47.350;8.718;2024-03-22T08:13:52;16.43;61.67
69324;DHT22;56470;47.350;8.718;2024-03-22T08:16:17;16.53;61.43
69324;DHT22;56470;47.350;8.718;2024-03-22T08:18:42;16.65;61.17
69324;DHT22;56470;47.350;8.718;2024-03-22T08:21:08;16.71;61.40
69324;DHT22;56470;47.350;8.718;2024-03-22T08:23:33;16.94;61.00
69324;DHT22;56470;47.350;8.718;2024-03-22T08:25:59;17.04;60.53
69324;DHT22;56470;47.350;8.718;2024-03-22T08:28:24;17.23;60.51
69324;DHT22;56470;47.350;8.718;2024-03-22T08:30:50;17.53;59.73
69324;DHT22;56470;47.350;8.718;2024-03-22T08:33:15;17.75;58.88
69324;DHT22;56470;47.350;8.718;2024-03-22T08:35:40;17.82;58.27
69324;DHT22;56470;47.350;8.718;2024-03-22T08:38:06;17.84;58.51
69324;DHT22;56470;47.350;8.718;2024-03-22T08:40:38;17.94;58.04
69324;DHT22;56470;47.350;8.718;2024-03-22T08:43:05;18.09;58.18
69324;DHT22;56470;47.350;8.718;2024-03-22T08:45:32;18.23;57.91
69324;DHT22;56470;47.350;8.718;2024-03-22T08:47:58;18.41;57.41
69324;DHT22;56470;47.350;8.718;2024-03-22T08:50:23;18.57;56.90
69324;DHT22;56470;47.350;8.718;2024-03-22T08:52:48;18.67;55.94
69324;DHT22;56470;47.350;8.718;2024-03-22T08:55:14;18.64;55.65
69324;DHT22;56470;47.350;8.718;2024-03-22T08:57:39;18.54;55.58
69324;DHT22;56470;47.350;8.718;2024-03-22T09:00:05;18.56;55.85
69324;DHT22;56470;47.350;8.718;2024-03-22T09:02:33;18.61;55.29
69324;DHT22;56470;47.350;8.718;2024-03-22T09:04:59;18.63;54.30
69324;DHT22;56470;47.350;8.718;2024-03-22T09:07:24;18.53;54.67
69324;DHT22;56470;47.350;8.718;2024-03-22T09:09:50;18.46;54.62
69324;DHT22;56470;47.350;8.718;2024-03-22T09:12:15;18.40;54.84
69324;DHT22;56470;47.350;8.718;2024-03-22T09:14:40;18.41;54.83
69324;DHT22;56470;47.350;8.718;2024-03-22T09:17:06;18.41;54.84
69324;DHT22;56470;47.350;8.718;2024-03-22T09:19:32;18.51;54.70
69324;DHT22;56470;47.350;8.718;2024-03-22T09:21:57;18.74;54.44
69324;DHT22;56470;47.350;8.718;2024-03-22T09:24:22;18.95;54.07
69324;DHT22;56470;47.350;8.718;2024-03-22T09:26:48;19.08;53.52
69324;DHT22;56470;47.350;8.718;2024-03-22T09:29:13;19.13;53.56
69324;DHT22;56470;47.350;8.718;2024-03-22T09:31:38;19.37;53.15
69324;DHT22;56470;47.350;8.718;2024-03-22T09:34:04;19.61;52.46
69324;DHT22;56470;47.350;8.718;2024-03-22T09:36:29;19.78;52.05
69324;DHT22;56470;47.350;8.718;2024-03-22T09:38:59;19.92;51.21
69324;DHT22;56470;47.350;8.718;2024-03-22T09:41:25;19.99;51.23
69324;DHT22;56470;47.350;8.718;2024-03-22T09:43:54;19.96;50.69
69324;DHT22;56470;47.350;8.718;2024-03-22T09:46:23;19.92;50.67
69324;DHT22;56470;47.350;8.718;2024-03-22T09:48:49;19.86;50.26
69324;DHT22;56470;47.350;8.718;2024-03-22T09:51:17;19.78;50.03
69324;DHT22;56470;47.350;8.718;2024-03-22T09:53:48;19.64;49.91
69324;DHT22;56470;47.350;8.718;2024-03-22T09:56:14;19.57;50.82
69324;DHT22;56470;47.350;8.718;2024-03-22T09:58:43;19.54;50.50
69324;DHT22;56470;47.350;8.718;2024-03-22T10:01:09;19.51;50.55
69324;DHT22;56470;47.350;8.718;2024-03-22T10:03:36;19.50;50.60
69324;DHT22;56470;47.350;8.718;2024-03-22T10:06:02;19.54;50.70
69324;DHT22;56470;47.350;8.718;2024-03-22T10:08:27;19.54;50.30
69324;DHT22;56470;47.350;8.718;2024-03-22T10:10:52;19.47;50.40
69324;DHT22;56470;47.350;8.718;2024-03-22T10:13:18;19.45;50.60
69324;DHT22;56470;47.350;8.718;2024-03-22T10:15:43;19.41;50.33
69324;DHT22;56470;47.350;8.718;2024-03-22T10:18:10;19.33;50.22
69324;DHT22;56470;47.350;8.718;2024-03-22T10:20:36;19.30;50.46
69324;DHT22;56470;47.350;8.718;2024-03-22T10:23:01;19.30;50.11
69324;DHT22;56470;47.350;8.718;2024-03-22T10:25:27;19.37;50.26
69324;DHT22;56470;47.350;8.718;2024-03-22T10:27:56;19.36;49.64
69324;DHT22;56470;47.350;8.718;2024-03-22T10:30:23;19.26;50.06
69324;DHT22;56470;47.350;8.718;2024-03-22T10:32:49;19.22;49.87
69324;DHT22;56470;47.350;8.718;2024-03-22T10:35:15;19.18;50.26
69324;DHT22;56470;47.350;8.718;2024-03-22T10:37:41;19.19;50.26
69324;DHT22;56470;47.350;8.718;2024-03-22T10:40:07;19.23;49.87
69324;DHT22;56470;47.350;8.718;2024-03-22T10:42:40;19.27;48.64
69324;DHT22;56470;47.350;8.718;2024-03-22T10:45:09;19.37;49.71
69324;DHT22;56470;47.350;8.718;2024-03-22T10:47:42;19.43;48.90
69324;DHT22;56470;47.350;8.718;2024-03-22T10:50:41;19.47;47.97
69324;DHT22;56470;47.350;8.718;2024-03-22T10:53:16;19.46;48.54
69324;DHT22;56470;47.350;8.718;2024-03-22T10:55:46;19.33;48.37
69324;DHT22;56470;47.350;8.718;2024-03-22T10:58:15;19.29;48.35
69324;DHT22;56470;47.350;8.718;2024-03-22T11:00:42;19.37;48.24
69324;DHT22;56470;47.350;8.718;2024-03-22T11:03:08;19.36;48.05
69324;DHT22;56470;47.350;8.718;2024-03-22T11:05:33;19.47;47.82
69324;DHT22;56470;47.350;8.718;2024-03-22T11:08:05;19.63;47.29
69324;DHT22;56470;47.350;8.718;2024-03-22T11:10:33;19.77;47.10
69324;DHT22;56470;47.350;8.718;2024-03-22T11:13:06;19.84;46.16
69324;DHT22;56470;47.350;8.718;2024-03-22T11:15:33;19.86;45.93
69324;DHT22;56470;47.350;8.718;2024-03-22T11:17:59;19.95;45.35
69324;DHT22;56470;47.350;8.718;2024-03-22T11:20:25;19.99;45.05
69324;DHT22;56470;47.350;8.718;2024-03-22T11:22:54;20.05;44.06
69324;DHT22;56470;47.350;8.718;2024-03-22T11:25:19;20.12;43.70
69324;DHT22;56470;47.350;8.718;2024-03-22T11:27:46;20.09;43.48
69324;DHT22;56470;47.350;8.718;2024-03-22T11:30:11;20.09;43.44
69324;DHT22;56470;47.350;8.718;2024-03-22T11:32:36;20.05;43.00
69324;DHT22;56470;47.350;8.718;2024-03-22T11:35:12;20.05;43.55
69324;DHT22;56470;47.350;8.718;2024-03-22T11:37:39;20.06;43.69
69324;DHT22;56470;47.350;8.718;2024-03-22T11:40:05;20.12;43.63
69324;DHT22;56470;47.350;8.718;2024-03-22T11:42:34;20.20;43.32
69324;DHT22;56470;47.350;8.718;2024-03-22T11:45:01;20.23;43.01
69324;DHT22;56470;47.350;8.718;2024-03-22T11:47:26;20.22;42.34
69324;DHT22;56470;47.350;8.718;2024-03-22T11:49:52;20.18;42.26
69324;DHT22;56470;47.350;8.718;2024-03-22T11:52:17;20.11;41.71
69324;DHT22;56470;47.350;8.718;2024-03-22T13:53:26;18.54;41.61
69324;DHT22;56470;47.350;8.718;2024-03-22T13:56:09;18.57;42.62
69324;DHT22;56470;47.350;8.718;2024-03-22T18:10:12;17.32;46.59
69324;DHT22;56470;47.350;8.718;2024-03-22T18:12:37;17.26;46.77
69324;DHT22;56470;47.350;8.718;2024-03-22T18:15:06;17.19;46.94
69324;DHT22;56470;47.350;8.718;2024-03-22T18:17:34;17.18;47.08
69324;DHT22;56470;47.350;8.718;2024-03-22T18:19:59;17.11;47.44
69324;DHT22;56470;47.350;8.718;2024-03-22T18:22:24;17.05;47.67
69324;DHT22;56470;47.350;8.718;2024-03-22T18:25:20;16.94;48.61
69324;DHT22;56470;47.350;8.718;2024-03-22T18:27:48;16.95;48.05
69324;DHT22;56470;47.350;8.718;2024-03-22T18:30:13;16.92;48.21
69324;DHT22;56470;47.350;8.718;2024-03-22T18:32:39;16.85;48.30
69324;DHT22;56470;47.350;8.718;2024-03-22T18:35:04;16.78;48.44
69324;DHT22;56470;47.350;8.718;2024-03-22T18:37:33;16.77;48.60
69324;DHT22;56470;47.350;8.718;2024-03-22T18:39:58;16.81;48.71
69324;DHT22;56470;47.350;8.718;2024-03-22T18:42:26;16.81;48.65
69324;DHT22;56470;47.350;8.718;2024-03-22T18:44:52;16.75;48.77
69324;DHT22;56470;47.350;8.718;2024-03-22T18:47:17;16.64;48.91
69324;DHT22;56470;47.350;8.718;2024-03-22T18:49:46;16.50;49.23
69324;DHT22;56470;47.350;8.718;2024-03-22T18:52:11;16.46;49.34
69324;DHT22;56470;47.350;8.718;2024-03-22T18:54:37;16.37;49.51
69324;DHT22;56470;47.350;8.718;2024-03-22T18:57:02;16.29;49.98
69324;DHT22;56470;47.350;8.718;2024-03-22T18:59:31;16.23;50.25
69324;DHT22;56470;47.350;8.718;2024-03-22T19:02:14;16.10;50.41
69324;DHT22;56470;47.350;8.718;2024-03-22T19:04:42;16.06;50.63
69324;DHT22;56470;47.350;8.718;2024-03-22T19:07:07;15.98;50.71
69324;DHT22;56470;47.350;8.718;2024-03-22T19:09:33;15.97;50.71
69324;DHT22;56470;47.350;8.718;2024-03-22T19:12:01;15.95;50.75
69324;DHT22;56470;47.350;8.718;2024-03-22T19:14:26;15.94;50.82
69324;DHT22;56470;47.350;8.718;2024-03-22T19:16:51;15.97;50.81
69324;DHT22;56470;47.350;8.718;2024-03-22T19:19:17;15.90;50.99
69324;DHT22;56470;47.350;8.718;2024-03-22T19:21:45;15.77;51.08
69324;DHT22;56470;47.350;8.718;2024-03-22T19:24:10;15.75;51.31
69324;DHT22;56470;47.350;8.718;2024-03-22T19:26:36;15.71;51.18
69324;DHT22;56470;47.350;8.718;2024-03-22T19:29:04;15.64;51.19
69324;DHT22;56470;47.350;8.718;2024-03-22T19:31:29;15.60;51.19
69324;DHT22;56470;47.350;8.718;2024-03-22T19:33:55;15.57;51.29
69324;DHT22;56470;47.350;8.718;2024-03-22T19:36:20;15.51;51.41
69324;DHT22;56470;47.350;8.718;2024-03-22T19:38:51;15.46;51.48
69324;DHT22;56470;47.350;8.718;2024-03-22T19:41:16;15.49;51.61
69324;DHT22;56470;47.350;8.718;2024-03-22T19:43:41;15.51;51.67
69324;DHT22;56470;47.350;8.718;2024-03-22T19:46:07;15.50;51.67
69324;DHT22;56470;47.350;8.718;2024-03-22T19:48:32;15.53;51.73
69324;DHT22;56470;47.350;8.718;2024-03-22T19:50:57;15.54;51.99
69324;DHT22;56470;47.350;8.718;2024-03-22T19:53:23;15.58;51.99
69324;DHT22;56470;47.350;8.718;2024-03-22T19:55:48;15.68;52.00
69324;DHT22;56470;47.350;8.718;2024-03-22T19:58:17;15.74;51.77
69324;DHT22;56470;47.350;8.718;2024-03-22T20:00:42;15.71;51.51
69324;DHT22;56470;47.350;8.718;2024-03-22T20:03:07;15.67;51.62
69324;DHT22;56470;47.350;8.718;2024-03-22T20:05:33;15.70;51.74
69324;DHT22;56470;47.350;8.718;2024-03-22T20:07:58;15.73;51.84
69324;DHT22;56470;47.350;8.718;2024-03-22T20:10:23;15.74;51.92
69324;DHT22;56470;47.350;8.718;2024-03-22T20:12:49;15.78;51.91
69324;DHT22;56470;47.350;8.718;2024-03-22T20:15:14;15.78;51.94
69324;DHT22;56470;47.350;8.718;2024-03-22T20:17:41;15.81;52.04
69324;DHT22;56470;47.350;8.718;2024-03-22T20:20:06;15.77;52.05
69324;DHT22;56470;47.350;8.718;2024-03-22T20:22:32;15.71;52.23
69324;DHT22;56470;47.350;8.718;2024-03-22T20:24:58;15.65;52.22
69324;DHT22;56470;47.350;8.718;2024-03-22T20:27:24;15.60;52.42
69324;DHT22;56470;47.350;8.718;2024-03-22T20:29:50;15.54;52.56
69324;DHT22;56470;47.350;8.718;2024-03-22T20:32:15;15.56;52.82
69324;DHT22;56470;47.350;8.718;2024-03-22T20:34:41;15.53;52.93
69324;DHT22;56470;47.350;8.718;2024-03-22T20:37:07;15.50;53.00
